Time;durP1;ratioP1;P1;durP2;ratioP2;P2;SDS_P1;SDS_P2;PMS_P1;PMS_P2;Temp;Humidity;BMP_temperature;BMP_pressure;BME280_temperature;BME280_humidity;BME280_pressure;Samples;Min_cycle;Max_cycle;Signal;HPM_P1;HPM_P2
2021/06/07 00:01:39;;;;;;;;;;;;;;;23.25;42.82;100168.07;1771217;81;20137;-76
2021/06/07 00:04:07;;;;;;;;;;;;;;;23.23;42.68;100166.14;1771332;81;20153;-77
2021/06/07 00:06:33;;;;;;;;;;;;;;;23.27;42.66;100172.77;1771098;81;20534;-77
2021/06/07 00:09:02;;;;;;;;;;;;;;;23.24;42.75;100175.98;1771270;81;20161;-78
2021/06/07 00:11:28;;;;;;;;;;;;;;;23.25;42.71;100177.64;1771054;81;20129;-77
2021/06/07 00:13:54;;;;;;;;;;;;;;;23.26;42.64;100172.48;1771234;81;20214;-77
2021/06/07 00:16:22;;;;;;;;;;;;;;;23.28;42.66;100173.05;1771334;81;20880;-77
2021/06/07 00:18:49;;;;;;;;;;;;;;;23.31;42.83;100177.20;1771144;79;20208;-76
2021/06/07 00:21:22;;;;;;;;;;;;;;;23.32;43.08;100179.39;1771256;79;20271;-75
2021/06/07 00:23:51;;;;;;;;;;;;;;;23.32;43.24;100173.93;1771283;79;20125;-75
2021/06/07 00:26:18;;;;;;;;;;;;;;;23.32;43.51;100175.30;1771438;79;20161;-75
2021/06/07 00:28:45;;;;;;;;;;;;;;;23.31;43.71;100170.91;1771475;81;20177;-76
2021/06/07 00:31:12;;;;;;;;;;;;;;;23.29;43.89;100177.44;1766232;80;20414;-76
2021/06/07 00:33:39;;;;;;;;;;;;;;;23.27;44.18;100176.05;1764850;80;20265;-76
2021/06/07 00:36:05;;;;;;;;;;;;;;;23.26;43.98;100171.66;1769921;81;20160;-76
2021/06/07 00:38:33;;;;;;;;;;;;;;;23.25;44.14;100173.54;1770802;81;20133;-76
2021/06/07 00:41:00;;;;;;;;;;;;;;;23.24;44.15;100166.97;1770829;81;20204;-75
2021/06/07 00:43:26;;;;;;;;;;;;;;;23.26;44.16;100173.03;1771177;81;20443;-75
2021/06/07 00:45:52;;;;;;;;;;;;;;;23.24;44.27;100173.25;1740799;81;20187;-76
2021/06/07 00:48:18;;;;;;;;;;;;;;;23.25;44.34;100170.80;1770870;80;20269;-76
2021/06/07 00:50:49;;;;;;;;;;;;;;;23.24;44.39;100168.33;1769914;80;20164;-76
2021/06/07 00:53:17;;;;;;;;;;;;;;;23.24;44.35;100166.97;1770124;80;20465;-75
2021/06/07 00:55:55;;;;;;;;;;;;;;;23.25;44.49;100170.80;1770767;81;20180;-75
2021/06/07 00:58:27;;;;;;;;;;;;;;;23.25;44.62;100168.07;1770852;81;20197;-76
2021/06/07 01:00:55;;;;;;;;;;;;;;;23.23;44.66;100166.14;1789878;79;20201;-75
2021/06/07 01:03:21;;;;;;;;;;;;;;;23.26;44.65;100170.30;1803517;79;20159;-76
2021/06/07 01:05:49;;;;;;;;;;;;;;;23.26;44.74;100166.20;1802993;79;20135;-77
2021/06/07 01:08:15;;;;;;;;;;;;;;;23.26;44.82;100168.93;1744289;82;20178;-77
2021/06/07 01:10:42;;;;;;;;;;;;;;;23.26;44.88;100171.12;1735896;82;20218;-76
2021/06/07 01:13:08;;;;;;;;;;;;;;;23.25;44.89;100169.44;1735572;82;20421;-76
2021/06/07 01:15:36;;;;;;;;;;;;;;;23.26;44.90;100175.22;1735729;81;20144;-75
2021/06/07 01:18:02;;;;;;;;;;;;;;;23.28;44.95;100173.05;1735948;82;20186;-76
2021/06/07 01:20:28;;;;;;;;;;;;;;;23.30;44.93;100175.56;1735752;82;20504;-76
2021/06/07 01:22:54;;;;;;;;;;;;;;;23.31;44.99;100176.37;1735655;82;20237;-76
2021/06/07 01:25:25;;;;;;;;;;;;;;;23.33;45.07;100176.95;1735702;82;20131;-77
2021/06/07 01:27:53;;;;;;;;;;;;;;;23.33;44.98;100170.94;1735686;82;20168;-76
2021/06/07 01:30:25;;;;;;;;;;;;;;;23.33;45.01;100175.03;1735997;82;20139;-76
2021/06/07 01:32:51;;;;;;;;;;;;;;;23.32;45.11;100173.39;1761102;81;20203;-76
2021/06/07 01:35:17;;;;;;;;;;;;;;;23.31;45.16;100170.91;1761139;81;20703;-77
2021/06/07 01:37:44;;;;;;;;;;;;;;;23.30;45.28;100171.45;1735626;82;20487;-76
2021/06/07 01:40:14;;;;;;;;;;;;;;;23.28;45.33;100175.78;1736121;82;20132;-76
2021/06/07 01:42:42;;;;;;;;;;;;;;;23.27;45.42;100176.05;1735755;82;20163;-76
2021/06/07 01:45:10;;;;;;;;;;;;;;;23.26;45.49;100175.76;1735824;82;20143;-76
2021/06/07 01:47:36;;;;;;;;;;;;;;;23.24;45.52;100171.89;1735769;82;20144;-76
2021/06/07 01:50:05;;;;;;;;;;;;;;;23.23;45.54;100175.70;1735754;82;20445;-76
2021/06/07 01:52:31;;;;;;;;;;;;;;;23.24;45.66;100179.27;1735840;82;20445;-76
2021/06/07 01:54:57;;;;;;;;;;;;;;;23.22;45.68;100174.06;1737406;82;20136;-76
2021/06/07 01:57:23;;;;;;;;;;;;;;;23.22;45.72;100175.42;1735781;82;20174;-76
2021/06/07 01:59:49;;;;;;;;;;;;;;;23.22;45.79;100174.06;1735825;82;20198;-77
2021/06/07 02:02:15;;;;;;;;;;;;;;;23.29;45.72;100169.23;1735857;82;20189;-76
2021/06/07 02:04:41;;;;;;;;;;;;;;;23.26;45.82;100177.13;1735683;82;20152;-76
2021/06/07 02:07:09;;;;;;;;;;;;;;;23.21;46.07;100171.05;1754324;80;20137;-76
2021/06/07 02:09:39;;;;;;;;;;;;;;;23.22;46.24;100174.59;1766301;81;20414;-76
2021/06/07 02:12:07;;;;;;;;;;;;;;;23.23;46.40;100173.52;1766086;81;20161;-76
2021/06/07 02:14:33;;;;;;;;;;;;;;;23.24;46.50;100180.09;1766236;81;20149;-76
2021/06/07 02:17:00;;;;;;;;;;;;;;;23.28;46.51;100168.95;1766074;80;20136;-76
2021/06/07 02:19:26;;;;;;;;;;;;;;;23.27;46.59;100170.03;1766014;80;20162;-76
2021/06/07 02:21:52;;;;;;;;;;;;;;;23.28;46.64;100169.49;1766309;81;20302;-76
2021/06/07 02:24:18;;;;;;;;;;;;;;;23.28;46.70;100166.77;1766143;80;20129;-76
2021/06/07 02:26:44;;;;;;;;;;;;;;;23.27;46.73;100164.57;1766098;80;20249;-76
2021/06/07 02:29:12;;;;;;;;;;;;;;;23.28;46.71;100167.59;1766534;80;20183;-76
2021/06/07 02:31:38;;;;;;;;;;;;;;;23.27;46.70;100170.03;1766422;80;20134;-76
2021/06/07 02:34:06;;;;;;;;;;;;;;;23.28;46.68;100173.05;1766142;80;20169;-76
2021/06/07 02:36:33;;;;;;;;;;;;;;;23.28;46.70;100181.25;1766307;81;20165;-76
2021/06/07 02:39:00;;;;;;;;;;;;;;;23.27;46.73;100184.24;1765439;80;20113;-76
2021/06/07 02:41:26;;;;;;;;;;;;;;;23.26;46.76;100180.69;1745791;79;20135;-76
2021/06/07 02:43:53;;;;;;;;;;;;;;;23.25;46.81;100184.47;1719841;83;20194;-76
2021/06/07 02:46:19;;;;;;;;;;;;;;;23.24;46.83;100188.28;1719657;83;20143;-76
2021/06/07 02:48:46;;;;;;;;;;;;;;;23.25;46.84;100189.94;1719973;82;20147;-76
2021/06/07 02:51:12;;;;;;;;;;;;;;;23.27;46.88;100189.16;1721147;83;20256;-76
2021/06/07 02:53:38;;;;;;;;;;;;;;;23.29;46.89;100189.73;1719943;83;20131;-77
2021/06/07 02:56:06;;;;;;;;;;;;;;;23.29;46.87;100188.91;1720784;82;20135;-76
2021/06/07 02:58:32;;;;;;;;;;;;;;;23.33;46.80;100189.24;1720968;83;20151;-76
2021/06/07 03:01:00;;;;;;;;;;;;;;;23.35;46.76;100191.20;1721053;83;20273;-76
2021/06/07 03:03:27;;;;;;;;;;;;;;;23.37;46.70;100194.50;1720061;83;20432;-76
2021/06/07 03:05:54;;;;;;;;;;;;;;;23.38;46.74;100202.45;1720632;83;20143;-76
2021/06/07 03:08:22;;;;;;;;;;;;;;;23.39;46.71;100196.44;1720640;83;20417;-77
2021/06/07 03:10:52;;;;;;;;;;;;;;;23.38;46.68;100194.25;1720767;82;20127;-77
2021/06/07 03:13:20;;;;;;;;;;;;;;;23.38;46.73;100198.34;1720851;83;20446;-77
2021/06/07 03:15:47;;;;;;;;;;;;;;;23.39;46.66;100195.07;1720296;82;20175;-77
2021/06/07 03:18:13;;;;;;;;;;;;;;;23.39;46.52;100193.19;1720664;83;20136;-76
2021/06/07 03:20:40;;;;;;;;;;;;;;;23.38;46.51;100186.05;1720730;83;20143;-77
2021/06/07 03:23:08;;;;;;;;;;;;;;;23.38;46.52;100191.52;1721157;83;20249;-76
2021/06/07 03:25:34;;;;;;;;;;;;;;;23.37;46.48;100190.41;1720260;83;20199;-77
2021/06/07 03:28:02;;;;;;;;;;;;;;;23.36;46.54;100190.95;1720824;82;20139;-76
2021/06/07 03:30:28;;;;;;;;;;;;;;;23.37;46.45;100191.77;1720898;81;20499;-77
2021/06/07 03:32:54;;;;;;;;;;;;;;;23.36;46.60;100190.13;1720541;83;20162;-77
2021/06/07 03:35:20;;;;;;;;;;;;;;;23.34;46.69;100190.89;1720816;83;20440;-77
2021/06/07 03:37:46;;;;;;;;;;;;;;;23.34;46.72;100187.62;1720056;83;20132;-76
2021/06/07 03:40:16;;;;;;;;;;;;;;;23.35;46.72;100191.20;1720648;83;20178;-76
2021/06/07 03:42:46;;;;;;;;;;;;;;;23.35;46.76;100199.41;1720211;82;20167;-78
2021/06/07 03:45:13;;;;;;;;;;;;;;;23.36;46.81;100200.52;1721950;83;20132;-78
2021/06/07 03:47:39;;;;;;;;;;;;;;;23.38;46.80;100204.36;1721421;82;20135;-77
2021/06/07 03:50:06;;;;;;;;;;;;;;;23.42;46.86;100209.62;1722601;79;20164;-79
2021/06/07 03:52:32;;;;;;;;;;;;;;;23.44;46.79;100207.48;1770786;81;20153;-78
2021/06/07 03:54:58;;;;;;;;;;;;;;;23.45;46.81;100203.66;1757946;81;20203;-78
2021/06/07 03:57:24;;;;;;;;;;;;;;;23.49;46.65;100216.58;1772057;81;20509;-78
2021/06/07 03:59:50;;;;;;;;;;;;;;;23.49;46.58;100214.39;1741098;79;20170;-78
2021/06/07 04:02:18;;;;;;;;;;;;;;;23.49;46.44;100213.84;1764037;81;20145;-79
2021/06/07 04:04:44;;;;;;;;;;;;;;;23.48;46.41;100208.61;1747411;79;20162;-78
2021/06/07 04:07:11;;;;;;;;;;;;;;;23.48;46.40;100207.24;1748148;79;20128;-78
2021/06/07 04:09:40;;;;;;;;;;;;;;;23.50;46.45;100211.94;1749484;81;20105;-78
2021/06/07 04:12:06;;;;;;;;;;;;;;;23.51;46.49;100212.22;1743380;81;20097;-78
2021/06/07 04:14:32;;;;;;;;;;;;;;;23.51;46.30;100206.21;1743546;82;20145;-78
2021/06/07 04:16:58;;;;;;;;;;;;;;;23.53;46.19;100212.28;1747967;81;20122;-78
2021/06/07 04:19:25;;;;;;;;;;;;;;;23.54;46.26;100208.45;1762117;79;20177;-78
2021/06/07 04:21:52;;;;;;;;;;;;;;;23.54;46.22;100211.73;1738285;82;20366;-78
2021/06/07 04:24:18;;;;;;;;;;;;;;;23.55;46.32;100212.02;1743315;81;20158;-78
2021/06/07 04:26:45;;;;;;;;;;;;;;;23.57;46.56;100216.68;1760472;81;20179;-78
2021/06/07 04:29:12;;;;;;;;;;;;;;;23.60;46.44;100212.63;1763173;81;20137;-78
2021/06/07 04:31:38;;;;;;;;;;;;;;;23.63;46.37;100212.97;1765778;81;20127;-79
2021/06/07 04:34:04;;;;;;;;;;;;;;;23.68;46.28;100218.55;1747892;79;20178;-78
2021/06/07 04:36:30;;;;;;;;;;;;;;;23.73;46.31;100210.95;1770931;80;20645;-79
2021/06/07 04:38:56;;;;;;;;;;;;;;;23.78;46.27;100212.39;1769462;81;20175;-78
2021/06/07 04:41:22;;;;;;;;;;;;;;;23.83;46.18;100211.09;1757373;80;20177;-78
2021/06/07 04:43:48;;;;;;;;;;;;;;;23.88;46.22;100207.61;1742850;81;20187;-79
2021/06/07 04:46:15;;;;;;;;;;;;;;;23.96;46.17;100205.81;1756138;80;20177;-79
2021/06/07 04:48:42;;;;;;;;;;;;;;;24.04;46.19;100207.57;1748914;81;20566;-79
2021/06/07 04:51:08;;;;;;;;;;;;;;;24.14;46.05;100215.62;1745280;80;20187;-79
2021/06/07 04:53:34;;;;;;;;;;;;;;;24.18;45.90;100214.86;1752241;80;20226;-77
2021/06/07 04:56:00;;;;;;;;;;;;;;;24.21;45.71;100210.78;1761341;80;20206;-77
2021/06/07 04:58:28;;;;;;;;;;;;;;;24.21;45.43;100211.63;1775188;80;20168;-78
2021/06/07 05:00:57;;;;;;;;;;;;;;;24.24;45.56;100211.10;1770488;80;20551;-76
2021/06/07 05:03:26;;;;;;;;;;;;;;;24.27;45.46;100211.97;1765951;81;20151;-78
2021/06/07 05:05:53;;;;;;;;;;;;;;;24.30;45.30;100214.75;1763309;80;20193;-76
2021/06/07 05:08:20;;;;;;;;;;;;;;;24.32;45.36;100211.75;1761932;80;20227;-78
2021/06/07 05:10:47;;;;;;;;;;;;;;;24.34;45.38;100210.94;1756407;79;20163;-77
2021/06/07 05:13:13;;;;;;;;;;;;;;;24.37;45.53;100214.58;1747962;80;20170;-79
2021/06/07 05:15:42;;;;;;;;;;;;;;;24.40;45.48;100209.43;1756318;79;20181;-78
2021/06/07 05:18:08;;;;;;;;;;;;;;;24.45;45.59;100218.24;1758168;79;20153;-77
2021/06/07 05:20:34;;;;;;;;;;;;;;;24.50;45.52;100213.65;1759844;80;20179;-77
2021/06/07 05:23:01;;;;;;;;;;;;;;;24.55;45.44;100212.33;1755234;79;20138;-77
2021/06/07 05:25:28;;;;;;;;;;;;;;;24.60;45.40;100216.22;1757852;79;20508;-77
2021/06/07 05:27:54;;;;;;;;;;;;;;;24.65;45.39;100215.73;1759276;80;20165;-77
2021/06/07 05:30:21;;;;;;;;;;;;;;;24.72;45.32;100218.28;1752892;80;20105;-77
2021/06/07 05:32:47;;;;;;;;;;;;;;;24.77;45.14;100226.00;1753725;79;20112;-77
2021/06/07 05:35:14;;;;;;;;;;;;;;;24.85;45.12;100225.27;1756973;80;20156;-77
2021/06/07 05:37:41;;;;;;;;;;;;;;;24.90;44.96;100220.66;1754122;80;20110;-76
2021/06/07 05:40:07;;;;;;;;;;;;;;;24.97;44.82;100222.63;1749306;79;20230;-77
2021/06/07 05:42:33;;;;;;;;;;;;;;;25.01;44.52;100218.84;1753118;80;20116;-77
2021/06/07 05:45:00;;;;;;;;;;;;;;;25.08;44.53;100221.41;1753307;80;20107;-79
2021/06/07 05:47:26;;;;;;;;;;;;;;;25.11;44.40;100217.59;1741828;80;20145;-79
2021/06/07 05:49:52;;;;;;;;;;;;;;;25.16;44.24;100214.89;1732209;80;20159;-79
2021/06/07 05:52:18;;;;;;;;;;;;;;;25.19;44.24;100218.49;1754508;80;20172;-79
2021/06/07 05:54:44;;;;;;;;;;;;;;;25.21;44.07;100219.08;1757384;79;20257;-76
2021/06/07 05:57:10;;;;;;;;;;;;;;;25.21;43.89;100218.25;1753685;79;20210;-78
2021/06/07 05:59:37;;;;;;;;;;;;;;;25.23;44.00;100218.80;1756496;79;20524;-75
2021/06/07 06:02:05;;;;;;;;;;;;;;;25.23;44.07;100218.25;1755383;79;20166;-76
2021/06/07 06:04:32;;;;;;;;;;;;;;;25.23;44.09;100219.63;1755397;80;20501;-76
2021/06/07 06:07:01;;;;;;;;;;;;;;;25.21;44.14;100219.08;1757744;80;20106;-77
2021/06/07 06:09:27;;;;;;;;;;;;;;;25.21;44.31;100214.14;1752846;79;20112;-77
2021/06/07 06:11:57;;;;;;;;;;;;;;;25.19;44.10;100212.19;1757570;79;20773;-76
2021/06/07 06:14:24;;;;;;;;;;;;;;;25.19;44.04;100211.64;1755398;80;20172;-76
2021/06/07 06:16:50;;;;;;;;;;;;;;;25.20;44.04;100212.46;1756007;80;20120;-77
2021/06/07 06:19:16;;;;;;;;;;;;;;;25.17;43.91;100211.09;1756733;80;20134;-77
2021/06/07 06:21:42;;;;;;;;;;;;;;;25.16;43.97;100208.04;1758263;79;20133;-78
2021/06/07 06:24:09;;;;;;;;;;;;;;;25.18;43.97;100212.73;1758340;79;20793;-78
2021/06/07 06:26:35;;;;;;;;;;;;;;;25.19;44.07;100207.53;1759118;79;20188;-78
2021/06/07 06:29:01;;;;;;;;;;;;;;;25.23;44.01;100209.20;1755374;79;20173;-78
2021/06/07 06:31:28;;;;;;;;;;;;;;;25.33;44.01;100213.40;1758008;79;20452;-79
2021/06/07 06:33:54;;;;;;;;;;;;;;;25.43;43.86;100208.53;1756920;79;20132;-76
2021/06/07 06:36:22;;;;;;;;;;;;;;;25.53;43.59;100214.13;1756675;80;20170;-78
2021/06/07 06:38:48;;;;;;;;;;;;;;;25.64;43.57;100211.72;1750186;80;20124;-78
2021/06/07 06:41:14;;;;;;;;;;;;;;;25.72;43.41;100215.34;1757130;80;20258;-76
2021/06/07 06:43:43;;;;;;;;;;;;;;;25.79;43.26;100212.39;1758383;79;20162;-76
2021/06/07 06:46:09;;;;;;;;;;;;;;;25.84;43.20;100217.91;1755677;79;20455;-77
2021/06/07 06:48:34;;;;;;;;;;;;;;;25.88;42.99;100216.84;1757036;79;20159;-76
2021/06/07 06:51:02;;;;;;;;;;;;;;;25.93;42.90;100212.75;1756292;79;20818;-76
2021/06/07 06:53:28;;;;;;;;;;;;;;;26.02;43.21;100212.52;1747022;80;20140;-77
2021/06/07 06:55:54;;;;;;;;;;;;;;;26.13;42.66;100220.28;1745638;80;20249;-78
2021/06/07 06:58:23;;;;;;;;;;;;;;;26.22;42.14;100215.94;1774590;78;20175;-77
2021/06/07 07:00:48;;;;;;;;;;;;;;;26.26;41.95;100211.56;1740754;80;20153;-77
2021/06/07 07:03:18;;;;;;;;;;;;;;;26.30;41.67;100218.17;1751349;79;20164;-78
2021/06/07 07:05:45;;;;;;;;;;;;;;;26.34;41.54;100222.56;1782369;79;20163;-78
2021/06/07 07:08:11;;;;;;;;;;;;;;;26.37;41.51;100228.90;1764078;79;20599;-76
2021/06/07 07:10:41;;;;;;;;;;;;;;;26.41;41.51;100227.27;1760982;79;20475;-77
2021/06/07 07:13:07;;;;;;;;;;;;;;;26.45;41.47;100223.75;1762681;79;20129;-77
2021/06/07 07:15:35;;;;;;;;;;;;;;;26.51;41.49;100223.21;1764895;79;20464;-77
2021/06/07 07:18:02;;;;;;;;;;;;;;;26.62;41.59;100222.16;1761424;79;20109;-78
2021/06/07 07:20:28;;;;;;;;;;;;;;;26.79;41.62;100220.54;1760483;78;20173;-77
2021/06/07 07:22:56;;;;;;;;;;;;;;;26.96;41.28;100221.13;1760932;78;20181;-76
2021/06/07 07:25:22;;;;;;;;;;;;;;;27.10;41.17;100222.83;1763080;78;20553;-76
2021/06/07 07:27:48;;;;;;;;;;;;;;;27.19;41.01;100228.06;1760387;78;20514;-76
2021/06/07 07:30:17;;;;;;;;;;;;;;;27.25;40.62;100223.37;1761298;78;20176;-76
2021/06/07 07:32:45;;;;;;;;;;;;;;;27.34;40.64;100226.41;1759101;78;20130;-76
2021/06/07 07:35:12;;;;;;;;;;;;;;;27.35;40.40;100226.71;1760243;79;20606;-77
2021/06/07 07:37:37;;;;;;;;;;;;;;;27.39;40.44;100227.78;1761233;78;20175;-77
2021/06/07 07:40:06;;;;;;;;;;;;;;;27.41;40.23;100218.17;1736728;79;20167;-76
2021/06/07 07:42:35;;;;;;;;;;;;;;;27.46;40.11;100222.84;1761660;78;20857;-77
2021/06/07 07:45:02;;;;;;;;;;;;;;;27.49;40.18;100223.13;1761898;79;20173;-76
2021/06/07 07:47:29;;;;;;;;;;;;;;;27.53;40.04;100232.47;1762957;78;20148;-76
2021/06/07 07:49:55;;;;;;;;;;;;;;;27.63;40.13;100228.89;1761338;78;20164;-76
2021/06/07 07:52:26;;;;;;;;;;;;;;;27.76;40.06;100226.16;1759888;79;20712;-75
2021/06/07 07:54:52;;;;;;;;;;;;;;;27.86;39.87;100229.44;1759979;78;20208;-76
2021/06/07 07:57:18;;;;;;;;;;;;;;;27.92;39.31;100232.44;1758759;78;20168;-76
2021/06/07 07:59:44;;;;;;;;;;;;;;;28.00;39.28;100231.32;1757827;79;20195;-76
2021/06/07 08:02:10;;;;;;;;;;;;;;;28.12;39.20;100230.20;1759806;79;20182;-76
2021/06/07 08:04:37;;;;;;;;;;;;;;;28.22;38.58;100235.11;1758562;79;20171;-76
2021/06/07 08:07:07;;;;;;;;;;;;;;;28.30;38.50;100230.41;1761510;79;20182;-76
2021/06/07 08:09:34;;;;;;;;;;;;;;;28.39;38.49;100227.08;1760567;79;20216;-76
2021/06/07 08:12:07;;;;;;;;;;;;;;;28.53;38.44;100235.03;1761544;78;20155;-76
2021/06/07 08:14:39;;;;;;;;;;;;;;;28.70;38.41;100232.71;1764016;78;20180;-76
2021/06/07 08:17:04;;;;;;;;;;;;;;;28.90;38.06;100239.23;1760211;78;20145;-76
2021/06/07 08:19:30;;;;;;;;;;;;;;;29.09;37.54;100238.86;1759852;78;20168;-77
2021/06/07 08:21:57;;;;;;;;;;;;;;;29.23;37.33;100235.71;1758670;78;20167;-77
2021/06/07 08:24:23;;;;;;;;;;;;;;;29.34;36.83;100241.96;1758272;79;20559;-76
2021/06/07 08:26:49;;;;;;;;;;;;;;;29.40;36.50;100239.45;1760291;78;20177;-77
2021/06/07 08:29:16;;;;;;;;;;;;;;;29.46;36.28;100238.28;1762342;79;20172;-77
2021/06/07 08:31:47;;;;;;;;;;;;;;;29.51;36.42;100238.80;1763595;79;20400;-76
2021/06/07 08:34:15;;;;;;;;;;;;;;;29.59;36.12;100237.39;1755931;78;20190;-76
2021/06/07 08:36:44;;;;;;;;;;;;;;;29.65;36.08;100232.90;1736392;79;20195;-77
2021/06/07 08:39:11;;;;;;;;;;;;;;;29.68;35.98;100239.23;1759566;79;20168;-76
2021/06/07 08:41:39;;;;;;;;;;;;;;;29.73;35.92;100232.27;1759852;79;20619;-76
2021/06/07 08:44:09;;;;;;;;;;;;;;;29.72;35.11;100240.86;1759560;78;20205;-78
2021/06/07 08:46:34;;;;;;;;;;;;;;;29.66;35.17;100235.09;1752655;80;20710;-76
2021/06/07 08:49:00;;;;;;;;;;;;;;;29.62;35.44;100232.12;1755581;78;20218;-76
2021/06/07 08:51:26;;;;;;;;;;;;;;;29.63;35.65;100227.42;1756905;77;20434;-76
2021/06/07 08:53:54;;;;;;;;;;;;;;;29.63;35.18;100229.62;1753133;79;20528;-77
2021/06/07 08:56:21;;;;;;;;;;;;;;;29.63;35.42;100231.00;1749905;79;20206;-76
2021/06/07 08:58:48;;;;;;;;;;;;;;;29.64;35.32;100231.81;1751552;79;20179;-76
2021/06/07 09:01:15;;;;;;;;;;;;;;;29.65;35.52;100232.08;1750492;79;20162;-76
2021/06/07 09:03:42;;;;;;;;;;;;;;;29.68;35.68;100228.19;1751603;79;20207;-77
2021/06/07 09:06:08;;;;;;;;;;;;;;;29.72;35.78;100223.73;1755146;79;20147;-76
2021/06/07 09:08:38;;;;;;;;;;;;;;;29.76;35.89;100226.17;1749313;79;20215;-76
2021/06/07 09:11:14;;;;;;;;;;;;;;;29.81;36.12;100218.40;1754693;79;20153;-76
2021/06/07 09:13:41;;;;;;;;;;;;;;;29.83;35.76;100216.16;1750510;79;20210;-77
2021/06/07 09:16:09;;;;;;;;;;;;;;;29.79;35.27;100213.16;1753803;79;20444;-78
2021/06/07 09:18:44;;;;;;;;;;;;;;;29.71;35.35;100211.61;1753749;79;20195;-77
2021/06/07 09:21:20;;;;;;;;;;;;;;;29.66;35.92;100205.58;1755895;79;20226;-78
2021/06/07 09:23:54;;;;;;;;;;;;;;;29.66;35.94;100199.21;1752205;79;20178;-77
2021/06/07 09:26:30;;;;;;;;;;;;;;;29.63;36.12;100197.05;1756964;79;20489;-79
2021/06/07 09:29:00;;;;;;;;;;;;;;;29.58;35.87;100197.93;1757634;80;20156;-77
2021/06/07 09:31:29;;;;;;;;;;;;;;;29.53;36.21;100202.09;1755324;79;20689;-77
2021/06/07 09:33:55;;;;;;;;;;;;;;;29.50;36.30;100204.04;1687028;83;20194;-78
2021/06/07 09:36:27;;;;;;;;;;;;;;;29.46;36.23;100194.69;1703862;82;20215;-78
2021/06/07 09:39:00;;;;;;;;;;;;;;;29.40;35.65;100195.86;1722082;81;20178;-78
2021/06/07 09:41:28;;;;;;;;;;;;;;;29.32;35.96;100195.92;1723626;81;20276;-78
2021/06/07 09:43:57;;;;;;;;;;;;;;;29.27;36.31;100185.75;1720218;81;20178;-77
2021/06/07 09:46:26;;;;;;;;;;;;;;;29.23;36.19;100183.30;1719352;80;20150;-78
2021/06/07 09:48:59;;;;;;;;;;;;;;;29.16;36.35;100180.59;1719913;80;20181;-78
2021/06/07 09:51:28;;;;;;;;;;;;;;;29.11;36.54;100186.16;1718329;80;20609;-78
2021/06/07 09:53:57;;;;;;;;;;;;;;;29.06;36.69;100180.13;1728051;81;20230;-78
2021/06/07 09:56:23;;;;;;;;;;;;;;;29.02;36.19;100172.16;1741107;80;20532;-77
2021/06/07 09:58:50;;;;;;;;;;;;;;;28.98;36.49;100179.39;1717861;81;20191;-79
2021/06/07 10:01:19;;;;;;;;;;;;;;;28.98;36.65;100180.77;1720253;80;20141;-78
2021/06/07 10:04:09;;;;;;;;;;;;;;;28.97;36.76;100180.47;1714435;81;20159;-77
2021/06/07 10:06:44;;;;;;;;;;;;;;;28.97;36.50;100179.09;1691490;80;20195;-77
2021/06/07 10:09:25;;;;;;;;;;;;;;;28.95;36.22;100180.77;1718035;80;20131;-78
2021/06/07 10:11:55;;;;;;;;;;;;;;;28.91;35.91;100178.84;1719394;81;20581;-77
2021/06/07 10:14:21;;;;;;;;;;;;;;;28.88;36.12;100178.03;1719999;81;20759;-77
2021/06/07 10:16:59;;;;;;;;;;;;;;;28.86;36.12;100177.50;1741375;80;20178;-78
2021/06/07 10:19:33;;;;;;;;;;;;;;;28.82;35.96;100176.69;1716111;80;20209;-77
2021/06/07 10:22:03;;;;;;;;;;;;;;;28.81;35.89;100167.34;1697679;80;20757;-77
2021/06/07 10:24:29;;;;;;;;;;;;;;;28.79;36.04;100161.27;1719336;82;20185;-77
2021/06/07 10:26:59;;;;;;;;;;;;;;;28.78;35.69;100163.20;1716393;80;20192;-77
2021/06/07 10:29:32;;;;;;;;;;;;;;;28.77;35.44;100161.56;1715553;80;20178;-76
2021/06/07 10:32:14;;;;;;;;;;;;;;;28.78;35.70;100154.12;1715518;80;20175;-77
2021/06/07 10:34:50;;;;;;;;;;;;;;;28.77;35.96;100153.86;1721622;81;20178;-77
2021/06/07 10:37:16;;;;;;;;;;;;;;;28.77;35.73;100161.56;1714884;80;20177;-77
2021/06/07 10:39:45;;;;;;;;;;;;;;;28.76;35.56;100153.59;1716237;80;20232;-78
2021/06/07 10:42:17;;;;;;;;;;;;;;;28.74;35.35;100158.55;1716221;81;20514;-77
2021/06/07 10:44:47;;;;;;;;;;;;;;;28.72;35.23;100153.89;1717517;80;20194;-78
2021/06/07 10:47:20;;;;;;;;;;;;;;;28.69;35.51;100161.34;1715869;80;20200;-77
2021/06/07 10:49:52;;;;;;;;;;;;;;;28.68;35.03;100161.91;1709493;82;20182;-76
2021/06/07 10:52:25;;;;;;;;;;;;;;;28.68;35.42;100154.20;1716512;80;20644;-77
2021/06/07 10:55:07;;;;;;;;;;;;;;;28.65;35.02;100154.20;1720818;80;20131;-77
2021/06/07 10:57:41;;;;;;;;;;;;;;;28.65;35.34;100149.24;1718523;80;20159;-78
2021/06/07 11:00:14;;;;;;;;;;;;;;;28.66;35.80;100155.87;1711519;80;20498;-78
2021/06/07 11:02:45;;;;;;;;;;;;;;;28.69;35.71;100153.08;1696546;80;21681;-78
2021/06/07 11:05:17;;;;;;;;;;;;;;;28.68;35.88;100160.53;1718620;80;20101;-78
2021/06/07 11:08:02;;;;;;;;;;;;;;;28.68;36.19;100154.20;1719189;81;20566;-78
2021/06/07 11:10:30;;;;;;;;;;;;;;;28.66;36.13;100160.00;1744255;79;20168;-78
2021/06/07 11:13:09;;;;;;;;;;;;;;;28.60;36.75;100160.30;1698312;82;20155;-76
2021/06/07 11:15:40;;;;;;;;;;;;;;;28.50;37.23;100179.10;1718542;80;20192;-76
2021/06/07 11:18:27;;;;;;;;;;;;;;;28.38;37.74;100175.84;1746628;79;20292;-77
2021/06/07 11:20:59;;;;;;;;;;;;;;;28.26;39.09;100188.00;1718782;79;20234;-75
2021/06/07 11:23:39;;;;;;;;;;;;;;;28.13;40.87;100188.61;1733191;79;20627;-77
2021/06/07 11:26:10;;;;;;;;;;;;;;;27.97;41.62;100189.20;1736255;79;20250;-77
2021/06/07 11:28:39;;;;;;;;;;;;;;;27.81;42.58;100182.92;1754564;79;20682;-77
2021/06/07 11:31:11;;;;;;;;;;;;;;;27.66;42.70;100182.94;1758024;79;20642;-77
2021/06/07 11:33:53;;;;;;;;;;;;;;;27.51;42.87;100179.64;1757164;79;20200;-77
2021/06/07 11:36:51;;;;;;;;;;;;;;;27.36;42.82;100178.84;1751241;79;20211;-77
2021/06/07 11:39:24;;;;;;;;;;;;;;;27.19;43.79;100164.81;1749023;79;20166;-77
2021/06/07 11:42:01;;;;;;;;;;;;;;;27.05;44.26;100162.31;1752269;79;20147;-77
2021/06/07 11:44:53;;;;;;;;;;;;;;;26.94;43.59;100167.55;1754618;79;20152;-78
2021/06/07 11:47:43;;;;;;;;;;;;;;;26.83;43.65;100165.31;1729863;81;20166;-77
2021/06/07 11:50:11;;;;;;;;;;;;;;;26.77;43.65;100165.86;1752891;80;20139;-78
2021/06/07 11:52:51;;;;;;;;;;;;;;;26.70;43.63;100161.72;1753305;81;20293;-78
2021/06/07 11:55:35;;;;;;;;;;;;;;;26.61;43.73;100153.19;1750533;79;20146;-77
2021/06/07 11:58:19;;;;;;;;;;;;;;;26.53;44.41;100156.48;1753879;79;20157;-78
2021/06/07 12:00:56;;;;;;;;;;;;;;;26.46;44.36;100149.86;1756535;79;20169;-77
2021/06/07 12:03:24;;;;;;;;;;;;;;;26.43;44.74;100148.17;1748413;80;20503;-77
2021/06/07 12:05:56;;;;;;;;;;;;;;;26.41;44.97;100153.12;1751318;79;20135;-78
2021/06/07 12:08:25;;;;;;;;;;;;;;;26.42;45.17;100147.90;1751553;80;20159;-77
2021/06/07 12:10:56;;;;;;;;;;;;;;;26.43;45.31;100151.77;1752749;80;20169;-77
2021/06/07 12:13:28;;;;;;;;;;;;;;;26.45;45.30;100152.89;1750646;80;20179;-76
2021/06/07 12:16:04;;;;;;;;;;;;;;;26.50;45.38;100152.90;1734306;81;20591;-77
2021/06/07 12:18:33;;;;;;;;;;;;;;;26.53;45.38;100144.12;1732239;81;20163;-77
2021/06/07 12:21:05;;;;;;;;;;;;;;;26.58;45.70;100141.94;1729076;81;20176;-78
2021/06/07 12:23:34;;;;;;;;;;;;;;;26.59;45.79;100130.67;1719688;82;20127;-77
2021/06/07 12:29:30;;;;;;;;;;;;;;;26.66;44.62;100131.77;1749143;79;20135;-78
2021/06/07 12:32:22;;;;;;;;;;;;;;;26.70;44.84;100130.95;1701929;80;20159;-77
2021/06/07 12:35:07;;;;;;;;;;;;;;;26.74;44.70;100123.81;1713109;80;20198;-78
2021/06/07 12:37:44;;;;;;;;;;;;;;;26.77;44.41;100122.45;1726242;80;20195;-77
2021/06/07 12:40:16;;;;;;;;;;;;;;;26.79;43.77;100105.95;1722809;80;20144;-78
2021/06/07 12:42:43;;;;;;;;;;;;;;;26.82;43.70;100107.34;1720254;80;20869;-77
2021/06/07 12:45:11;;;;;;;;;;;;;;;26.82;43.56;100097.72;1723990;80;20151;-78
2021/06/07 12:47:37;;;;;;;;;;;;;;;26.84;42.80;100098.25;1723422;80;20123;-78